Time;durP1;ratioP1;P1;durP2;ratioP2;P2;SDS_P1;SDS_P2;PMS_P1;PMS_P2;Temp;Humidity;BMP_temperature;BMP_pressure;BME280_temperature;BME280_humidity;BME280_pressure;Samples;Min_cycle;Max_cycle;Signal;HPM_P1;HPM_P2
2021/11/08 00:01:29;;;;;;;6.73;4.13;;;;;;;-145.69;100.00;72568.63;5074193;28;20199;-77
2021/11/08 00:03:55;;;;;;;6.20;3.80;;;;;;;-145.69;100.00;72568.63;5074226;28;20207;-77
2021/11/08 00:06:22;;;;;;;8.13;3.67;;;;;;;-145.69;100.00;72568.63;5074012;28;20245;-77
2021/11/08 00:08:53;;;;;;;7.03;3.67;;;;;;;-145.69;100.00;72562.66;5074155;28;20199;-77
2021/11/08 00:11:20;;;;;;;7.23;3.77;;;;;;;-145.69;100.00;72568.63;5074090;28;20202;-77
2021/11/08 00:13:47;;;;;;;10.67;4.47;;;;;;;-145.69;100.00;72564.66;5073674;28;20554;-77
2021/11/08 00:16:23;;;;;;;6.70;3.50;;;;;;;-145.69;100.00;72574.59;5073906;28;20563;-77
2021/11/08 00:19:04;;;;;;;8.10;3.50;;;;;;;-145.69;100.00;72576.59;5073709;28;20199;-77
2021/11/08 00:21:32;;;;;;;5.00;3.10;;;;;;;-145.69;100.00;72586.53;5073840;28;20665;-77
2021/11/08 00:24:00;;;;;;;5.63;3.47;;;;;;;-145.69;100.00;72592.50;5073588;28;20683;-77
2021/11/08 00:26:27;;;;;;;10.20;4.47;;;;;;;-145.69;100.00;72576.59;5073548;28;20562;-77
2021/11/08 00:28:54;;;;;;;9.67;4.97;;;;;;;-145.69;100.00;72576.59;5073392;28;20198;-77
2021/11/08 00:31:21;;;;;;;11.77;6.03;;;;;;;-145.69;100.00;72576.59;5073557;28;20630;-77
2021/11/08 00:33:48;;;;;;;11.17;5.73;;;;;;;-145.69;100.00;72582.56;5073765;28;20202;-77
2021/11/08 00:36:15;;;;;;;12.38;6.35;;;;;;;-145.69;100.00;72576.59;5073343;28;20545;-77
2021/11/08 00:38:42;;;;;;;11.43;6.60;;;;;;;-145.69;100.00;72574.59;5073282;28;20256;-77
2021/11/08 00:41:08;;;;;;;12.77;5.93;;;;;;;-145.69;100.00;72574.59;5073664;28;20199;-77
2021/11/08 00:43:35;;;;;;;13.70;6.80;;;;;;;-145.69;100.00;72572.59;5073424;28;20589;-77
2021/11/08 00:46:01;;;;;;;11.83;5.30;;;;;;;-145.69;100.00;72578.56;5073627;28;20202;-77
2021/11/08 00:48:32;;;;;;;7.90;4.60;;;;;;;-145.69;100.00;72580.56;5073325;28;20244;-77
2021/11/08 00:50:58;;;;;;;8.67;4.70;;;;;;;-145.69;100.00;72576.59;5073570;28;20226;-77
2021/11/08 00:53:31;;;;;;;6.87;4.43;;;;;;;-145.69;100.00;72584.56;5072463;28;20712;-77
2021/11/08 00:56:00;;;;;;;9.20;4.47;;;;;;;-145.69;100.00;72580.56;5073232;28;20234;-77
2021/11/08 00:58:30;;;;;;;7.57;4.20;;;;;;;-145.69;100.00;72580.56;5073256;28;20233;-77
2021/11/08 01:01:01;;;;;;;6.40;3.97;;;;;;;-145.69;100.00;72584.56;5073159;28;20234;-77
2021/11/08 01:03:28;;;;;;;9.60;4.03;;;;;;;-145.69;100.00;72590.53;5073156;28;20217;-77
2021/11/08 01:05:54;;;;;;;6.57;3.80;;;;;;;-145.69;100.00;72588.53;5072947;28;20232;-76
2021/11/08 01:08:21;;;;;;;8.27;4.47;;;;;;;-145.69;100.00;72588.53;5073299;28;20604;-76
2021/11/08 01:10:49;;;;;;;8.23;4.37;;;;;;;-145.69;100.00;72590.53;5072956;28;20649;-77
2021/11/08 01:13:15;;;;;;;8.33;4.33;;;;;;;-145.69;100.00;72590.53;5073126;28;20559;-76
2021/11/08 01:15:42;;;;;;;6.67;3.70;;;;;;;-145.69;100.00;72596.50;5072848;28;20222;-76
2021/11/08 01:18:09;;;;;;;8.00;4.45;;;;;;;-145.69;100.00;72596.50;5072418;28;20444;-76
2021/11/08 01:20:36;;;;;;;11.67;4.20;;;;;;;-145.69;100.00;72600.47;5073179;28;20657;-77
2021/11/08 01:23:04;;;;;;;11.67;3.67;;;;;;;-145.69;100.00;72600.47;5073012;28;20199;-77
2021/11/08 01:25:33;;;;;;;4.80;3.10;;;;;;;-145.69;100.00;72602.47;5072882;28;20199;-77
2021/11/08 01:28:04;;;;;;;7.33;3.67;;;;;;;-145.69;100.00;72602.47;5072825;28;20230;-76
2021/11/08 01:30:30;;;;;;;6.80;3.80;;;;;;;-145.69;100.00;72602.47;5072973;28;20213;-77
2021/11/08 01:33:01;;;;;;;9.30;4.10;;;;;;;-145.69;100.00;72592.50;5072452;28;20560;-77
2021/11/08 01:35:34;;;;;;;7.67;3.70;;;;;;;-145.69;100.00;72604.44;5072829;28;20209;-77
2021/11/08 01:38:04;;;;;;;9.43;3.60;;;;;;;-145.69;100.00;72608.44;5072800;28;20199;-77
2021/11/08 01:40:32;;;;;;;11.77;4.13;;;;;;;-145.69;100.00;72604.44;5073352;28;20198;-77
2021/11/08 01:42:58;;;;;;;8.07;4.17;;;;;;;-145.69;100.00;72600.47;5076664;28;20542;-76
2021/11/08 01:45:27;;;;;;;7.47;4.17;;;;;;;-145.69;100.00;72600.47;5076617;28;20560;-77
2021/11/08 01:47:56;;;;;;;9.97;4.23;;;;;;;-145.69;100.00;72608.44;5076856;28;20227;-77
2021/11/08 01:50:23;;;;;;;6.33;4.30;;;;;;;-145.69;100.00;72612.41;5076737;28;20547;-78
2021/11/08 01:52:50;;;;;;;7.37;3.93;;;;;;;-145.69;100.00;72604.44;5076463;28;20236;-76
2021/11/08 01:55:19;;;;;;;8.90;4.03;;;;;;;-145.69;100.00;72598.47;5076472;28;20202;-77
2021/11/08 01:57:45;;;;;;;7.00;4.23;;;;;;;-145.69;100.00;72602.47;5076368;28;20230;-76
2021/11/08 02:00:14;;;;;;;7.37;3.57;;;;;;;-145.69;100.00;72604.44;5076603;28;20233;-77
2021/11/08 02:02:42;;;;;;;8.00;3.70;;;;;;;-145.69;100.00;72606.44;5076245;28;20688;-76
2021/11/08 02:05:12;;;;;;;7.83;3.97;;;;;;;-145.69;100.00;72604.44;5076287;28;20434;-77
2021/11/08 02:07:38;;;;;;;5.90;3.77;;;;;;;-145.69;100.00;72610.44;5076246;28;20449;-76
2021/11/08 02:10:06;;;;;;;9.37;4.27;;;;;;;-145.69;100.00;72616.41;5076223;28;20210;-76
2021/11/08 02:12:33;;;;;;;9.70;4.10;;;;;;;-145.69;100.00;72624.34;5076120;28;20206;-77
2021/11/08 02:15:00;;;;;;;10.63;3.67;;;;;;;-145.69;100.00;72628.34;5076349;28;20203;-76
2021/11/08 02:17:27;;;;;;;12.23;3.93;;;;;;;-145.69;100.00;72624.34;5076003;28;20424;-76
2021/11/08 02:19:56;;;;;;;9.50;3.50;;;;;;;-145.69;100.00;72628.34;5076237;28;20256;-76
2021/11/08 02:22:27;;;;;;;7.83;3.50;;;;;;;-145.69;100.00;72628.34;5075966;28;20209;-76
2021/11/08 02:24:53;;;;;;;11.53;3.40;;;;;;;-145.69;100.00;72628.34;5075983;28;20565;-76
2021/11/08 02:27:21;;;;;;;8.83;3.63;;;;;;;-145.69;100.00;72622.38;5075912;28;20206;-76
2021/11/08 02:29:52;;;;;;;9.47;3.30;;;;;;;-145.69;100.00;72624.34;5075999;28;20210;-76
2021/11/08 02:32:18;;;;;;;7.97;3.23;;;;;;;-145.69;100.00;72626.34;5075850;28;20611;-76
2021/11/08 02:34:45;;;;;;;6.63;2.90;;;;;;;-145.69;100.00;72640.28;5075745;28;20214;-76
2021/11/08 02:37:15;;;;;;;13.80;2.80;;;;;;;-145.69;100.00;72658.19;5075753;28;20231;-77
2021/11/08 02:39:45;;;;;;;4.37;2.87;;;;;;;-145.69;100.00;72676.09;5075620;28;20297;-77
2021/11/08 02:42:11;;;;;;;8.93;2.73;;;;;;;-145.69;100.00;72692.03;5075730;28;20199;-76
2021/11/08 02:44:38;;;;;;;7.77;3.13;;;;;;;-145.69;100.00;72709.94;5075620;28;20268;-77
2021/11/08 02:47:05;;;;;;;6.07;2.73;;;;;;;-145.69;100.00;72715.91;5075824;28;20203;-76
2021/11/08 02:49:35;;;;;;;8.13;2.97;;;;;;;-145.69;100.00;72743.78;5075465;28;20203;-76
2021/11/08 02:52:04;;;;;;;4.57;3.00;;;;;;;-145.69;100.00;72763.69;5074879;28;20669;-76
2021/11/08 02:54:35;;;;;;;9.57;3.60;;;;;;;-145.69;100.00;72785.59;5075110;28;20324;-76
2021/11/08 02:57:02;;;;;;;6.03;3.13;;;;;;;-145.69;100.00;72779.63;5075278;28;20688;-77
2021/11/08 02:59:30;;;;;;;10.13;3.50;;;;;;;-145.69;100.00;72779.63;5075314;28;20198;-76
2021/11/08 03:01:57;;;;;;;10.13;2.83;;;;;;;-145.69;100.00;72785.59;5074509;28;20202;-76
2021/11/08 03:04:27;;;;;;;10.40;3.10;;;;;;;-145.69;100.00;72787.56;5075168;28;20306;-76
2021/11/08 03:06:54;;;;;;;10.03;3.90;;;;;;;-145.69;100.00;72771.66;5075369;28;20264;-75
2021/11/08 03:09:30;;;;;;;6.83;3.60;;;;;;;-145.69;100.00;72763.69;5075304;28;20557;-77
2021/11/08 03:11:59;;;;;;;9.90;3.50;;;;;;;-145.69;100.00;72761.69;5075083;28;20194;-77
2021/11/08 03:14:27;;;;;;;8.63;3.00;;;;;;;-145.69;100.00;72759.72;5074959;28;20248;-76
2021/11/08 03:16:56;;;;;;;6.33;3.30;;;;;;;-145.69;100.00;72747.78;5074923;28;20222;-77
2021/11/08 03:19:26;;;;;;;10.80;3.93;;;;;;;-145.69;100.00;72747.78;5074823;28;20668;-77
2021/11/08 03:21:56;;;;;;;8.50;3.23;;;;;;;-145.69;100.00;72743.78;5075120;28;20294;-77
2021/11/08 03:24:36;;;;;;;12.57;3.80;;;;;;;-145.69;100.00;72733.84;5074962;28;20201;-76
2021/11/08 03:27:08;;;;;;;5.83;3.77;;;;;;;-145.69;100.00;72731.84;5074803;28;20203;-76
2021/11/08 03:29:34;;;;;;;13.23;3.80;;;;;;;-145.69;100.00;72725.88;5074688;28;20688;-77
2021/11/08 03:32:03;;;;;;;9.77;3.93;;;;;;;-145.69;100.00;72727.88;5074577;28;20202;-77
2021/11/08 03:34:30;;;;;;;9.43;3.60;;;;;;;-145.69;100.00;72719.91;5074609;28;20248;-77
2021/11/08 03:36:59;;;;;;;10.40;4.05;;;;;;;-145.69;100.00;72719.91;5074421;28;20374;-77
2021/11/08 03:39:27;;;;;;;8.30;3.60;;;;;;;-145.69;100.00;72717.91;5074452;28;20293;-77
2021/11/08 03:41:53;;;;;;;8.47;4.20;;;;;;;-145.69;100.00;72713.94;5074400;28;20198;-77
2021/11/08 03:44:27;;;;;;;9.13;3.57;;;;;;;-145.69;100.00;72723.88;5074352;28;20199;-76
2021/11/08 03:46:54;;;;;;;7.37;3.63;;;;;;;-145.69;100.00;72727.88;5074758;28;20198;-76
2021/11/08 03:49:21;;;;;;;6.27;3.70;;;;;;;-145.69;100.00;72745.78;5074329;28;20202;-77
2021/11/08 03:51:49;;;;;;;5.93;3.10;;;;;;;-145.69;100.00;72751.75;5074237;28;20290;-76
2021/11/08 03:54:15;;;;;;;7.30;3.40;;;;;;;-145.69;100.00;72747.78;5074118;28;20234;-76
2021/11/08 03:56:42;;;;;;;6.23;3.33;;;;;;;-145.69;100.00;72739.81;5074041;28;20226;-77
2021/11/08 03:59:11;;;;;;;12.97;3.60;;;;;;;-145.69;100.00;72739.81;5074011;28;20206;-77
2021/11/08 04:01:39;;;;;;;9.47;3.20;;;;;;;-145.69;100.00;72743.78;5073902;28;20723;-76
2021/11/08 04:04:06;;;;;;;8.40;3.70;;;;;;;-145.69;100.00;72757.72;5072993;28;20637;-76
2021/11/08 04:06:34;;;;;;;10.87;3.87;;;;;;;-145.69;100.00;72755.72;5073960;28;20234;-76
2021/11/08 04:09:08;;;;;;;8.63;3.63;;;;;;;-145.69;100.00;72759.72;5073793;28;20198;-77
2021/11/08 04:11:35;;;;;;;12.53;3.70;;;;;;;-145.69;100.00;72763.69;5073917;28;20645;-76
2021/11/08 04:14:04;;;;;;;9.40;2.97;;;;;;;-145.69;100.00;72779.63;5073855;28;20206;-77
2021/11/08 04:16:33;;;;;;;8.00;3.37;;;;;;;-145.69;100.00;72795.53;5073652;28;20252;-77
2021/11/08 04:19:02;;;;;;;5.70;3.10;;;;;;;-145.69;100.00;72823.41;5073700;28;20230;-76
2021/11/08 04:21:30;;;;;;;5.37;2.50;;;;;;;-145.69;100.00;72831.38;5073657;28;20214;-76
2021/11/08 04:23:56;;;;;;;11.10;2.73;;;;;;;-145.69;100.00;72847.28;5073511;28;20198;-77
2021/11/08 04:26:25;;;;;;;6.87;3.77;;;;;;;-145.69;100.00;72843.31;5073532;28;20561;-76
2021/11/08 04:28:56;;;;;;;9.60;3.57;;;;;;;-145.69;100.00;72845.31;5073685;28;20222;-77
2021/11/08 04:31:24;;;;;;;15.00;4.60;;;;;;;-145.69;100.00;72849.28;5073811;28;20241;-77
2021/11/08 04:33:55;;;;;;;12.53;4.77;;;;;;;-145.69;100.00;72849.28;5073770;28;20203;-76
2021/11/08 04:36:41;;;;;;;17.80;5.10;;;;;;;-145.69;100.00;72841.31;5073719;28;20225;-77
2021/11/08 04:39:17;;;;;;;8.80;4.13;;;;;;;-145.69;100.00;72839.34;5073956;28;20209;-76
2021/11/08 04:41:50;;;;;;;12.67;4.63;;;;;;;-145.69;100.00;72859.25;5073564;28;20209;-76
2021/11/08 04:50:02;;;;;;;11.50;4.70;;;;;;;-145.69;100.00;72924.94;5064960;28;20236;-76
2021/11/08 04:52:42;;;;;;;7.53;4.07;;;;;;;-145.69;100.00;72960.75;5073164;28;20203;-76
2021/11/08 04:55:21;;;;;;;9.43;3.67;;;;;;;-145.69;100.00;72982.66;5073532;28;20222;-76
2021/11/08 04:58:12;;;;;;;12.00;4.67;;;;;;;-145.69;100.00;72990.63;5073122;28;20234;-76
2021/11/08 05:22:55;;;;;;;17.97;6.20;;;;;;;-145.69;100.00;73034.41;5073221;28;20198;-76
2021/11/08 05:28:20;;;;;;;23.07;5.97;;;;;;;-145.69;100.00;73086.19;5072533;28;20206;-75
2021/11/08 05:30:46;;;;;;;19.53;6.10;;;;;;;-145.69;100.00;73096.13;5073041;28;20205;-76
2021/11/08 05:33:14;;;;;;;16.80;5.67;;;;;;;-145.69;100.00;73100.09;5072987;28;20246;-76
2021/11/08 05:35:47;;;;;;;15.97;5.90;;;;;;;-145.69;100.00;73106.09;5073029;28;20253;-75
2021/11/08 05:38:15;;;;;;;19.67;5.07;;;;;;;-145.69;100.00;73133.94;5072751;28;20226;-77
2021/11/08 05:40:43;;;;;;;19.17;6.30;;;;;;;-145.69;100.00;73135.94;5073012;28;20230;-76
2021/11/08 05:43:10;;;;;;;31.97;7.00;;;;;;;-145.69;100.00;73126.00;5072835;28;20362;-76
2021/11/08 05:45:41;;;;;;;13.07;5.93;;;;;;;-145.69;100.00;73133.94;5072694;28;20565;-76
2021/11/08 05:48:10;;;;;;;17.10;5.50;;;;;;;-145.69;100.00;73155.84;5072647;28;20680;-76
2021/11/08 05:50:39;;;;;;;20.30;5.83;;;;;;;-145.69;100.00;73169.78;5072861;28;20199;-75
2021/11/08 05:53:08;;;;;;;21.33;6.40;;;;;;;-145.69;100.00;73165.81;5072723;28;20242;-76
2021/11/08 05:55:41;;;;;;;23.30;6.73;;;;;;;-145.69;100.00;73161.81;5072698;28;20199;-76
2021/11/08 05:58:18;;;;;;;17.80;6.50;;;;;;;-145.69;100.00;73165.81;5072819;28;20390;-76
2021/11/08 06:50:43;;;;;;;29.53;9.10;;;;;;;-145.69;100.00;73201.63;5064615;28;20206;-76
2021/11/08 06:53:17;;;;;;;32.97;9.67;;;;;;;-145.69;100.00;73189.69;5075589;28;20230;-76
2021/11/08 06:55:46;;;;;;;34.50;9.73;;;;;;;-145.69;100.00;73189.69;5075702;28;20206;-76
2021/11/08 06:58:18;;;;;;;24.77;8.80;;;;;;;-145.69;100.00;73203.63;5075334;28;20226;-77
2021/11/08 07:00:45;;;;;;;24.77;7.50;;;;;;;-145.69;100.00;73211.59;5075570;28;20199;-76
2021/11/08 07:03:13;;;;;;;36.03;8.40;;;;;;;-145.69;100.00;73209.59;5075516;28;20203;-75
2021/11/08 07:05:40;;;;;;;26.20;9.47;;;;;;;-145.69;100.00;73189.69;5075457;28;20203;-76
2021/11/08 07:08:07;;;;;;;22.47;8.87;;;;;;;-145.69;100.00;73195.66;5075405;28;20199;-76
2021/11/08 07:10:37;;;;;;;32.73;9.53;;;;;;;-145.69;100.00;73167.78;5075566;28;20609;-75
2021/11/08 07:13:05;;;;;;;43.43;11.00;;;;;;;-145.69;100.00;73131.97;5075175;28;20669;-76
2021/11/08 07:15:31;;;;;;;33.37;11.47;;;;;;;-145.69;100.00;73114.03;5074630;28;20209;-76
2021/11/08 07:17:58;;;;;;;49.73;13.27;;;;;;;-145.69;100.00;73122.00;5075039;28;20288;-76
2021/11/08 07:20:28;;;;;;;73.87;25.53;;;;;;;-145.69;100.00;73133.94;5075217;28;20203;-76
2021/11/08 07:23:00;;;;;;;45.83;16.77;;;;;;;-145.69;100.00;73145.91;5074633;28;20621;-76
2021/11/08 07:25:27;;;;;;;27.57;10.13;;;;;;;-145.69;100.00;73153.84;5075220;28;20226;-76
2021/11/08 07:27:56;;;;;;;23.20;8.47;;;;;;;-145.69;100.00;73169.78;5075037;28;20209;-76
2021/11/08 07:30:23;;;;;;;19.57;7.77;;;;;;;-145.69;100.00;73181.72;5074890;28;20233;-75
2021/11/08 07:32:50;;;;;;;21.00;7.47;;;;;;;-145.69;100.00;73181.72;5074691;28;20298;-77
2021/11/08 07:35:21;;;;;;;28.53;7.00;;;;;;;-145.69;100.00;73181.72;5074723;28;20198;-76
2021/11/08 07:37:49;;;;;;;20.70;7.57;;;;;;;-145.69;100.00;73165.81;5074819;28;20227;-76
2021/11/08 07:40:16;;;;;;;23.27;8.10;;;;;;;-145.69;100.00;73167.78;5074432;28;20199;-77
2021/11/08 07:42:42;;;;;;;20.40;7.33;;;;;;;-145.69;100.00;73157.84;5074431;28;20683;-76
2021/11/08 07:45:10;;;;;;;31.23;8.17;;;;;;;-145.69;100.00;73153.84;5075330;28;20290;-76
2021/11/08 07:47:36;;;;;;;21.67;7.60;;;;;;;-145.69;100.00;73161.81;5074612;28;20206;-76
2021/11/08 07:50:03;;;;;;;22.70;7.87;;;;;;;-145.69;100.00;73149.88;5074342;28;20677;-77
2021/11/08 07:52:30;;;;;;;21.57;7.33;;;;;;;-145.69;100.00;73161.81;5074018;28;20203;-76
2021/11/08 07:54:58;;;;;;;26.90;8.13;;;;;;;-145.69;100.00;73157.84;5074631;28;20206;-77
2021/11/08 07:57:28;;;;;;;26.00;7.57;;;;;;;-145.69;100.00;73157.84;5074527;28;20222;-76
2021/11/08 07:59:56;;;;;;;25.00;7.40;;;;;;;-145.69;100.00;73145.91;5074408;28;20210;-76
2021/11/08 08:02:25;;;;;;;26.80;7.33;;;;;;;-145.69;100.00;73137.94;5074113;28;20202;-76
2021/11/08 08:04:53;;;;;;;23.13;7.27;;;;;;;-145.69;100.00;73137.94;5074514;28;20199;-76
2021/11/08 08:07:22;;;;;;;24.97;6.57;;;;;;;-145.69;100.00;73133.94;5074429;28;20213;-76
2021/11/08 08:09:48;;;;;;;19.60;6.70;;;;;;;-145.69;100.00;73122.00;5074205;28;20202;-76
2021/11/08 08:12:16;;;;;;;17.73;6.10;;;;;;;-145.69;100.00;73114.03;5074006;28;20199;-76
2021/11/08 08:14:43;;;;;;;30.73;8.83;;;;;;;-145.69;100.00;73090.16;5074037;28;20201;-77
2021/11/08 08:17:09;;;;;;;35.10;9.23;;;;;;;-145.69;100.00;73074.22;5073646;28;20206;-76
2021/11/08 08:19:36;;;;;;;41.10;14.20;;;;;;;-145.69;100.00;73062.28;5073146;28;20496;-76
2021/11/08 08:22:03;;;;;;;34.07;9.43;;;;;;;-145.69;100.00;73046.34;5073910;28;20199;-76
2021/11/08 08:24:30;;;;;;;32.87;8.33;;;;;;;-145.69;100.00;73042.38;5073975;28;20293;-76
2021/11/08 08:27:11;;;;;;;30.10;7.20;;;;;;;-145.69;100.00;73022.47;5073936;28;20206;-76
2021/11/08 08:29:39;;;;;;;31.73;8.13;;;;;;;-145.69;100.00;73016.50;5071045;28;20671;-77
2021/11/08 08:32:09;;;;;;;25.70;7.60;;;;;;;-145.69;100.00;73002.56;5073972;28;20221;-76
2021/11/08 08:34:36;;;;;;;28.20;7.57;;;;;;;-145.69;100.00;72990.63;5073733;28;20321;-76
2021/11/08 08:37:02;;;;;;;33.10;7.10;;;;;;;-145.69;100.00;72974.69;5073689;28;20195;-77
2021/11/08 08:39:30;;;;;;;34.83;7.50;;;;;;;-145.69;100.00;72964.75;5073668;28;20260;-77
2021/11/08 08:41:56;;;;;;;35.10;8.70;;;;;;;-145.69;100.00;72938.88;5073737;28;20199;-77
2021/11/08 08:44:23;;;;;;;43.60;8.90;;;;;;;-145.69;100.00;72918.97;5073482;28;20260;-77
2021/11/08 08:46:53;;;;;;;33.90;8.33;;;;;;;-145.69;100.00;72903.03;5073435;28;20199;-77
2021/11/08 08:49:22;;;;;;;26.33;8.00;;;;;;;-145.69;100.00;72893.09;5073285;28;20212;-78
2021/11/08 08:51:49;;;;;;;36.20;8.57;;;;;;;-145.69;100.00;72883.13;5072749;28;20306;-77
2021/11/08 08:54:16;;;;;;;26.20;8.13;;;;;;;-145.69;100.00;72869.19;5073321;28;20242;-76
2021/11/08 08:56:46;;;;;;;27.40;7.43;;;;;;;-145.69;100.00;72859.25;5073067;28;20252;-76
2021/11/08 08:59:17;;;;;;;29.50;7.80;;;;;;;-145.69;100.00;72843.31;5073592;28;20313;-77
2021/11/08 09:01:49;;;;;;;32.37;7.07;;;;;;;-145.69;100.00;72835.34;5073453;28;20206;-75
2021/11/08 09:04:17;;;;;;;39.83;7.17;;;;;;;-145.69;100.00;72827.38;5073417;28;20211;-76
2021/11/08 09:06:43;;;;;;;25.90;6.23;;;;;;;-145.69;100.00;72815.44;5073405;28;20210;-76
2021/11/08 09:09:12;;;;;;;24.15;5.28;;;;;;;-145.69;100.00;72799.53;5071839;28;20438;-76
2021/11/08 09:11:39;;;;;;;15.13;3.87;;;;;;;-145.69;100.00;72803.50;5073074;28;20546;-76
2021/11/08 09:14:08;;;;;;;15.63;3.97;;;;;;;-145.69;100.00;72795.53;5073196;28;20221;-76
2021/11/08 09:16:37;;;;;;;24.17;4.20;;;;;;;-145.69;100.00;72787.56;5069735;28;20604;-76
2021/11/08 09:19:05;;;;;;;19.53;4.80;;;;;;;-145.69;100.00;72773.66;5072503;28;20313;-76
2021/11/08 09:21:36;;;;;;;17.60;4.37;;;;;;;-145.69;100.00;72767.69;5072705;28;20206;-75
2021/11/08 09:24:06;;;;;;;23.97;4.60;;;;;;;-145.69;100.00;72757.72;5072696;28;20203;-75
2021/11/08 09:26:40;;;;;;;16.83;4.00;;;;;;;-145.69;100.00;72737.81;5072848;28;20199;-76
2021/11/08 09:29:07;;;;;;;18.63;3.70;;;;;;;-145.69;100.00;72727.88;5072961;28;20198;-77
2021/11/08 09:31:34;;;;;;;15.60;3.87;;;;;;;-145.69;100.00;72717.91;5073045;28;20198;-76
2021/11/08 09:34:07;;;;;;;18.73;4.10;;;;;;;-145.69;100.00;72700.00;5072789;28;20206;-75
2021/11/08 09:36:40;;;;;;;22.03;3.73;;;;;;;-145.69;100.00;72676.09;5073076;28;20252;-76
2021/11/08 09:39:10;;;;;;;11.17;3.27;;;;;;;-145.69;100.00;72674.13;5072943;28;20227;-76
2021/11/08 09:41:39;;;;;;;13.90;3.27;;;;;;;-145.69;100.00;72666.16;5072833;28;20281;-76
2021/11/08 09:44:11;;;;;;;23.53;3.17;;;;;;;-145.69;100.00;72660.19;5072663;28;20241;-76
2021/11/08 09:46:38;;;;;;;17.00;2.90;;;;;;;-145.69;100.00;72652.22;5072709;28;20230;-76
2021/11/08 09:49:07;;;;;;;21.87;3.47;;;;;;;-145.69;100.00;72644.25;5072581;28;20199;-76
2021/11/08 09:51:53;;;;;;;16.43;2.53;;;;;;;-145.69;100.00;72622.38;5072583;28;20199;-77
2021/11/08 09:54:27;;;;;;;14.60;3.45;;;;;;;-145.69;100.00;72612.41;5071746;28;20438;-77
2021/11/08 09:57:03;;;;;;;10.57;3.20;;;;;;;-145.69;100.00;72592.50;5072518;28;20206;-77
2021/11/08 09:59:31;;;;;;;13.20;3.30;;;;;;;-145.69;100.00;72572.59;5072319;28;20229;-77
2021/11/08 10:01:59;;;;;;;14.57;3.17;;;;;;;-145.69;100.00;72558.66;5072752;28;20202;-78
2021/11/08 10:04:27;;;;;;;12.77;3.30;;;;;;;-145.69;100.00;72538.78;5076134;28;20199;-77
2021/11/08 10:06:57;;;;;;;15.70;2.70;;;;;;;-145.69;100.00;72508.91;5076215;28;20558;-77
2021/11/08 10:09:27;;;;;;;9.43;2.67;;;;;;;-145.69;100.00;72477.06;5076263;28;20206;-80
2021/11/08 10:11:58;;;;;;;14.33;2.50;;;;;;;-145.69;100.00;72421.34;5076366;28;20198;-78
2021/11/08 10:14:27;;;;;;;12.63;2.67;;;;;;;-145.69;100.00;72365.59;5076184;28;20199;-78
2021/11/08 10:16:58;;;;;;;10.13;2.70;;;;;;;-145.69;100.00;72305.91;5076199;28;20209;-78
2021/11/08 10:19:27;;;;;;;11.80;2.33;;;;;;;-145.69;89.57;72278.03;5076080;28;20309;-78
2021/11/08 10:21:57;;;;;;;14.00;3.13;;;;;;;-145.69;94.71;72317.84;5075656;28;20203;-78
2021/11/08 10:24:26;;;;;;;12.47;3.30;;;;;;;-145.69;95.42;72315.84;5075907;28;20211;-78
2021/11/08 10:27:02;;;;;;;12.23;3.97;;;;;;;-145.69;93.89;72351.66;5076019;28;20198;-78
2021/11/08 10:29:30;;;;;;;14.60;3.90;;;;;;;-145.69;98.15;72407.41;5075927;28;20199;-78
2021/11/08 10:32:00;;;;;;;15.20;3.80;;;;;;;-145.69;95.52;72421.34;5076062;28;20209;-77
2021/11/08 10:34:29;;;;;;;20.83;4.20;;;;;;;-145.69;98.74;72451.19;5075751;28;20294;-77
2021/11/08 10:37:05;;;;;;;17.77;4.13;;;;;;;-145.69;100.00;72469.09;5076039;28;20561;-77
2021/11/08 10:39:35;;;;;;;13.60;3.60;;;;;;;-145.69;99.59;72479.06;5075606;28;20704;-77
2021/11/08 10:42:04;;;;;;;17.17;3.50;;;;;;;-145.69;98.61;72496.97;5075739;28;20584;-77
2021/11/08 10:44:33;;;;;;;21.33;3.90;;;;;;;-145.69;98.26;72506.91;5075721;28;20198;-77
2021/11/08 10:47:05;;;;;;;15.47;2.83;;;;;;;-145.69;100.00;72522.84;5075282;28;20198;-77
2021/11/08 10:49:37;;;;;;;13.23;3.23;;;;;;;-145.69;100.00;72548.72;5075488;28;20227;-77
2021/11/08 10:52:14;;;;;;;15.17;3.20;;;;;;;-145.69;100.00;72566.63;5075364;28;20649;-77
2021/11/08 10:54:57;;;;;;;12.27;2.80;;;;;;;-145.69;100.00;72580.56;5075408;28;20319;-77
2021/11/08 10:57:27;;;;;;;12.43;3.27;;;;;;;-145.69;100.00;72592.50;5075432;28;20198;-77
2021/11/08 10:59:56;;;;;;;20.10;3.30;;;;;;;-145.69;100.00;72596.50;5075592;28;20581;-77
2021/11/08 11:02:31;;;;;;;12.20;3.17;;;;;;;-145.69;100.00;72600.47;5074987;28;20210;-77
2021/11/08 11:05:02;;;;;;;12.30;3.83;;;;;;;-145.69;100.00;72608.44;5075407;28;20201;-76
2021/11/08 11:07:34;;;;;;;8.40;3.53;;;;;;;-145.69;100.00;72600.47;5075046;28;20206;-76
2021/11/08 11:10:06;;;;;;;15.63;3.90;;;;;;;-145.69;100.00;72600.47;5075361;28;20569;-76
2021/11/08 11:12:34;;;;;;;11.97;3.57;;;;;;;-145.69;100.00;72600.47;5075222;28;20199;-77
2021/11/08 11:15:08;;;;;;;13.77;3.30;;;;;;;-145.69;100.00;72604.44;5074495;28;20202;-77
2021/11/08 11:17:42;;;;;;;18.77;4.20;;;;;;;-145.69;100.00;72596.50;5074922;28;20209;-77
2021/11/08 11:20:11;;;;;;;14.17;3.63;;;;;;;-145.69;100.00;72570.63;5077581;28;20237;-77
2021/11/08 11:22:46;;;;;;;15.93;3.83;;;;;;;-145.69;100.00;72536.78;5075368;28;20199;-77
2021/11/08 11:25:16;;;;;;;15.77;3.10;;;;;;;-145.69;100.00;72532.78;5074931;28;20220;-77
2021/11/08 11:27:52;;;;;;;24.03;4.77;;;;;;;-145.69;100.00;72524.84;5075153;28;20203;-77
2021/11/08 11:30:22;;;;;;;20.23;3.53;;;;;;;-145.69;100.00;72534.78;5075063;28;20224;-76
2021/11/08 11:32:59;;;;;;;12.10;3.97;;;;;;;-145.69;100.00;72542.75;5074058;28;20199;-77
2021/11/08 11:35:34;;;;;;;8.80;3.53;;;;;;;-145.69;100.00;72564.66;5075124;28;20596;-76
2021/11/08 11:38:10;;;;;;;13.20;4.00;;;;;;;-145.69;100.00;72570.63;5074950;28;20230;-77
2021/11/08 11:40:45;;;;;;;9.77;3.73;;;;;;;-145.69;100.00;72566.63;5074874;28;20233;-77
2021/11/08 11:43:15;;;;;;;12.20;3.53;;;;;;;-145.69;100.00;72556.69;5074537;28;20232;-76
2021/11/08 11:45:52;;;;;;;11.70;3.20;;;;;;;-145.69;100.00;72536.78;5074720;28;20565;-77
2021/11/08 11:48:20;;;;;;;12.83;3.10;;;;;;;-145.69;100.00;72520.84;5074711;28;20209;-76
2021/11/08 11:50:50;;;;;;;11.57;2.97;;;;;;;-145.69;100.00;72500.94;5074558;28;20203;-77
2021/11/08 11:53:20;;;;;;;13.27;3.00;;;;;;;-145.69;100.00;72461.13;5074413;28;20317;-77
2021/11/08 11:55:48;;;;;;;14.93;3.30;;;;;;;-145.69;98.90;72417.34;5074322;28;20209;-77
2021/11/08 11:58:19;;;;;;;12.77;3.00;;;;;;;-145.69;99.65;72373.56;5074552;28;20203;-77
2021/11/08 12:00:53;;;;;;;13.60;2.80;;;;;;;-145.69;92.75;72375.56;5074343;28;20203;-77
2021/11/08 12:03:26;;;;;;;11.57;2.90;;;;;;;-145.69;91.33;72381.53;5074145;28;20202;-77
2021/11/08 12:05:57;;;;;;;13.43;2.97;;;;;;;-145.69;91.50;72395.47;5074346;28;20207;-77
2021/11/08 12:08:34;;;;;;;11.90;2.40;;;;;;;-145.69;91.77;72395.47;5073879;28;20199;-77
2021/11/08 12:11:02;;;;;;;17.40;2.70;;;;;;;-145.69;94.36;72413.38;5074556;28;20198;-76
2021/11/08 12:13:36;;;;;;;14.10;2.73;;;;;;;-145.69;94.08;72415.38;5074051;28;20206;-77
2021/11/08 12:16:13;;;;;;;15.30;3.25;;;;;;;-145.69;96.99;72433.28;5073103;28;20983;-77
2021/11/08 12:18:45;;;;;;;9.73;2.70;;;;;;;-145.69;96.62;72457.16;5073694;28;20198;-77
2021/11/08 12:21:28;;;;;;;10.20;2.37;;;;;;;-145.69;97.82;72477.06;5073848;28;20202;-76
2021/11/08 12:23:57;;;;;;;20.50;2.90;;;;;;;-145.69;98.15;72477.06;5073321;28;20210;-77
2021/11/08 12:26:29;;;;;;;14.33;2.73;;;;;;;-145.69;99.71;72483.03;5072934;28;20289;-77
2021/11/08 12:29:19;;;;;;;8.57;2.60;;;;;;;-145.69;99.51;72496.97;5073668;28;20230;-77
2021/11/08 12:31:48;;;;;;;6.83;2.57;;;;;;;-145.69;100.00;72510.91;5073681;28;20209;-76
2021/11/08 12:34:20;;;;;;;8.27;2.70;;;;;;;-145.69;100.00;72516.88;5073466;28;20203;-76
2021/11/08 12:37:00;;;;;;;13.90;2.73;;;;;;;-145.69;100.00;72496.97;5073854;28;20705;-77